Time;durP1;ratioP1;P1;durP2;ratioP2;P2;SDS_P1;SDS_P2;PMS_P1;PMS_P2;Temp;Humidity;BMP_temperature;BMP_pressure;BME280_temperature;BME280_humidity;BME280_pressure;Samples;Min_cycle;Max_cycle;Signal;HPM_P1;HPM_P2
2022/04/01 00:01:22;;;;;;;12.17;8.50;;;4.60;99.90;;;;;;5052730;28;20430;-66
2022/04/01 00:03:48;;;;;;;12.40;8.40;;;4.70;99.90;;;;;;5052570;28;20274;-66
2022/04/01 00:06:14;;;;;;;12.70;8.57;;;4.80;99.90;;;;;;5052600;28;20477;-67
2022/04/01 00:08:40;;;;;;;10.47;7.30;;;4.70;99.90;;;;;;5052424;28;20452;-66
2022/04/01 00:11:05;;;;;;;12.37;8.07;;;4.80;99.90;;;;;;5052548;28;20230;-66
2022/04/01 00:13:31;;;;;;;11.20;8.63;;;4.80;99.90;;;;;;5052438;28;20211;-67
2022/04/01 00:15:58;;;;;;;11.30;7.70;;;4.80;99.90;;;;;;5052539;28;20184;-67
2022/04/01 00:18:25;;;;;;;13.20;8.27;;;4.80;99.90;;;;;;5052106;28;20681;-68
2022/04/01 00:20:51;;;;;;;11.13;7.23;;;4.80;99.90;;;;;;5052166;28;20544;-68
2022/04/01 00:23:17;;;;;;;14.00;9.90;;;4.80;99.90;;;;;;5052317;28;20461;-69
2022/04/01 00:25:42;;;;;;;15.00;8.63;;;4.90;99.90;;;;;;5052375;28;20507;-67
2022/04/01 00:28:09;;;;;;;16.27;8.97;;;4.90;99.90;;;;;;5052045;28;20183;-67
2022/04/01 00:30:34;;;;;;;11.50;8.80;;;5.00;99.90;;;;;;5052152;28;20211;-67
2022/04/01 00:33:01;;;;;;;11.40;7.80;;;4.90;99.90;;;;;;5051874;28;20525;-65
2022/04/01 00:35:26;;;;;;;16.30;10.67;;;4.80;99.90;;;;;;5052125;28;20606;-65
2022/04/01 00:37:52;;;;;;;14.10;10.40;;;4.90;99.90;;;;;;5051866;28;20450;-65
2022/04/01 00:40:19;;;;;;;14.43;9.13;;;4.90;99.90;;;;;;5051968;28;20231;-65
2022/04/01 00:42:45;;;;;;;17.60;10.50;;;5.00;99.90;;;;;;5051929;28;20414;-65
2022/04/01 00:45:11;;;;;;;18.63;10.90;;;5.00;99.90;;;;;;5052021;28;20425;-65
2022/04/01 00:47:38;;;;;;;17.90;10.60;;;4.90;99.90;;;;;;5051488;28;20913;-65
2022/04/01 00:50:05;;;;;;;15.93;10.80;;;5.00;99.90;;;;;;5051720;28;20918;-66
2022/04/01 00:52:33;;;;;;;17.40;11.70;;;5.00;99.90;;;;;;5051707;28;20418;-65
2022/04/01 00:55:00;;;;;;;17.63;11.13;;;5.10;99.90;;;;;;5051842;28;20476;-65
2022/04/01 00:57:26;;;;;;;14.60;9.73;;;5.10;99.90;;;;;;5051476;28;20418;-65
2022/04/01 00:59:54;;;;;;;12.63;8.53;;;5.10;99.90;;;;;;5051628;28;20431;-64
2022/04/01 01:02:20;;;;;;;11.43;7.80;;;5.00;99.90;;;;;;5051435;28;20461;-64
2022/04/01 01:04:46;;;;;;;10.20;8.93;;;5.00;99.90;;;;;;5051474;28;20433;-66
2022/04/01 01:07:13;;;;;;;13.33;8.40;;;5.00;99.90;;;;;;5051286;28;20422;-65
2022/04/01 01:09:39;;;;;;;10.40;7.97;;;5.00;99.90;;;;;;5051421;28;20423;-65
2022/04/01 01:12:11;;;;;;;10.67;6.97;;;4.90;99.90;;;;;;5051330;28;20453;-64
2022/04/01 01:14:41;;;;;;;12.33;8.50;;;4.90;99.90;;;;;;5051230;28;20996;-65
2022/04/01 01:17:12;;;;;;;10.50;7.23;;;4.90;99.90;;;;;;5051071;28;20426;-65
2022/04/01 01:19:39;;;;;;;11.60;8.80;;;4.80;99.90;;;;;;5051288;28;20422;-65
2022/04/01 01:22:06;;;;;;;9.97;7.10;;;4.90;99.90;;;;;;5051038;28;20467;-65
2022/04/01 01:24:37;;;;;;;10.57;7.07;;;4.80;99.90;;;;;;5051148;28;20473;-64
2022/04/01 01:27:07;;;;;;;10.40;7.70;;;4.80;99.90;;;;;;5050874;28;20430;-68
2022/04/01 01:29:35;;;;;;;9.40;7.17;;;4.70;99.90;;;;;;5051030;28;20798;-67
2022/04/01 01:32:04;;;;;;;10.13;7.17;;;4.60;99.90;;;;;;5050890;28;20441;-66
2022/04/01 01:34:32;;;;;;;8.77;6.93;;;4.50;99.90;;;;;;5050868;28;20475;-67
2022/04/01 01:36:58;;;;;;;10.93;7.10;;;4.50;99.90;;;;;;5050728;28;20422;-66
2022/04/01 01:39:25;;;;;;;9.43;6.70;;;4.60;99.90;;;;;;5050863;28;20445;-67
2022/04/01 01:41:53;;;;;;;9.73;7.13;;;4.50;99.90;;;;;;5050682;28;20442;-66
2022/04/01 01:44:23;;;;;;;7.57;5.80;;;4.50;99.90;;;;;;5050838;28;20428;-66
2022/04/01 01:46:50;;;;;;;9.57;6.30;;;4.40;99.90;;;;;;5050604;28;20414;-66
2022/04/01 01:49:16;;;;;;;8.30;6.03;;;4.30;99.90;;;;;;5050737;28;20437;-66
2022/04/01 01:54:45;;;;;;;10.27;6.50;;;4.30;99.90;;;;;;5051901;28;20471;-67
2022/04/01 01:57:17;;;;;;;10.90;7.40;;;4.30;99.90;;;;;;5050480;28;21066;-67
2022/04/01 01:59:44;;;;;;;10.47;7.67;;;4.20;99.90;;;;;;5050581;28;20793;-66
2022/04/01 02:02:11;;;;;;;10.53;7.30;;;4.20;99.90;;;;;;5050453;28;20442;-67
2022/04/01 02:04:41;;;;;;;11.03;7.77;;;4.20;99.90;;;;;;5050450;28;20425;-67
2022/04/01 02:07:08;;;;;;;14.13;7.83;;;4.30;99.90;;;;;;5050315;28;20484;-66
2022/04/01 02:09:34;;;;;;;10.37;7.10;;;4.30;99.90;;;;;;5050467;28;20423;-68
2022/04/01 02:11:59;;;;;;;8.70;6.07;;;4.20;99.90;;;;;;5050414;28;20515;-66
2022/04/01 02:14:26;;;;;;;11.40;7.83;;;4.30;99.90;;;;;;5049910;28;20704;-66
2022/04/01 02:16:53;;;;;;;12.30;7.67;;;4.20;99.90;;;;;;5050186;28;20179;-67
2022/04/01 02:19:22;;;;;;;9.67;6.83;;;4.20;99.90;;;;;;5050244;28;20432;-66
2022/04/01 02:21:49;;;;;;;12.23;7.83;;;4.20;99.90;;;;;;5050264;28;20548;-66
2022/04/01 02:24:17;;;;;;;10.70;8.17;;;4.20;99.90;;;;;;5050319;28;20461;-66
2022/04/01 02:26:44;;;;;;;11.03;7.20;;;4.20;99.90;;;;;;5050465;28;21009;-66
2022/04/01 02:29:10;;;;;;;10.70;7.90;;;4.30;99.90;;;;;;5050324;28;20917;-66
2022/04/01 02:31:36;;;;;;;10.07;7.53;;;4.30;99.90;;;;;;5050189;28;20448;-66
2022/04/01 02:34:03;;;;;;;11.33;8.20;;;4.20;99.90;;;;;;5050038;28;20222;-66
2022/04/01 02:36:28;;;;;;;10.67;6.90;;;4.20;99.90;;;;;;5050111;28;20183;-67
2022/04/01 02:38:54;;;;;;;10.10;7.90;;;4.20;99.90;;;;;;5050201;28;20425;-66
2022/04/01 02:41:21;;;;;;;11.80;7.20;;;4.20;99.90;;;;;;5050132;28;20565;-66
2022/04/01 02:43:47;;;;;;;9.40;6.73;;;4.30;99.90;;;;;;5050210;28;20184;-66
2022/04/01 02:46:13;;;;;;;9.50;6.27;;;4.30;99.90;;;;;;5050007;28;21024;-66
2022/04/01 02:48:38;;;;;;;10.40;7.30;;;4.20;99.90;;;;;;5049850;28;20520;-66
2022/04/01 02:51:04;;;;;;;9.70;6.80;;;4.20;99.90;;;;;;5049997;28;20443;-66
2022/04/01 02:53:30;;;;;;;9.80;6.53;;;4.20;99.90;;;;;;5050123;28;20211;-66
2022/04/01 02:55:56;;;;;;;8.57;6.20;;;4.20;99.90;;;;;;5050011;28;20464;-66
2022/04/01 02:58:22;;;;;;;10.57;7.70;;;4.10;99.90;;;;;;5049878;28;20453;-66
2022/04/01 03:00:48;;;;;;;9.90;6.60;;;4.10;99.90;;;;;;5049838;28;20703;-66
2022/04/01 03:03:14;;;;;;;9.87;7.10;;;4.10;99.90;;;;;;5049896;28;20558;-67
2022/04/01 03:05:42;;;;;;;11.57;7.80;;;4.00;99.90;;;;;;5049915;28;20191;-66
2022/04/01 03:08:09;;;;;;;11.60;6.87;;;4.00;99.90;;;;;;5049701;28;20434;-66
2022/04/01 03:10:36;;;;;;;9.00;6.87;;;4.00;99.90;;;;;;5049741;28;20955;-66
2022/04/01 03:13:03;;;;;;;9.50;7.00;;;3.90;99.90;;;;;;5049868;28;20832;-68
2022/04/01 03:15:30;;;;;;;9.23;7.60;;;3.90;99.90;;;;;;5049695;28;20463;-67
2022/04/01 03:17:57;;;;;;;9.70;7.10;;;4.00;99.90;;;;;;5049668;28;20414;-67
2022/04/01 03:20:23;;;;;;;9.87;7.80;;;3.90;99.90;;;;;;5049585;28;20469;-66
2022/04/01 03:22:50;;;;;;;10.73;7.70;;;3.90;99.90;;;;;;5049861;28;20838;-66
2022/04/01 03:25:18;;;;;;;10.47;7.50;;;3.80;99.90;;;;;;5050857;28;20453;-67
2022/04/01 03:27:50;;;;;;;11.20;7.10;;;3.90;99.90;;;;;;5053217;28;20428;-66
2022/04/01 03:30:17;;;;;;;9.37;6.40;;;3.80;99.90;;;;;;5053096;28;20579;-68
2022/04/01 03:32:45;;;;;;;9.23;7.17;;;3.70;99.90;;;;;;5053379;28;20421;-67
2022/04/01 03:35:15;;;;;;;7.70;6.80;;;3.70;99.90;;;;;;5053096;28;20472;-67
2022/04/01 03:37:45;;;;;;;7.77;6.77;;;3.80;99.90;;;;;;5053055;28;20497;-67
2022/04/01 03:40:14;;;;;;;11.93;7.63;;;3.80;99.90;;;;;;5053025;28;20453;-67
2022/04/01 03:42:41;;;;;;;10.33;7.37;;;3.80;99.90;;;;;;5053054;28;20428;-66
2022/04/01 03:45:07;;;;;;;11.40;7.10;;;3.80;99.90;;;;;;5053159;28;20463;-67
2022/04/01 03:47:59;;;;;;;7.80;5.90;;;3.70;99.90;;;;;;5052882;28;20429;-66
2022/04/01 03:50:32;;;;;;;11.03;7.90;;;3.60;99.90;;;;;;5053130;28;20449;-66
2022/04/01 03:53:06;;;;;;;9.00;6.50;;;3.60;99.90;;;;;;5052878;28;20459;-67
2022/04/01 03:55:38;;;;;;;7.13;6.43;;;3.60;99.90;;;;;;5052877;28;20421;-66
2022/04/01 03:58:09;;;;;;;8.83;6.80;;;3.60;99.90;;;;;;5052728;28;20495;-66
2022/04/01 04:00:38;;;;;;;9.50;6.80;;;3.60;99.90;;;;;;5052682;28;20535;-66
2022/04/01 04:03:07;;;;;;;8.27;6.47;;;3.60;99.90;;;;;;5052843;28;20904;-67
2022/04/01 04:05:38;;;;;;;7.13;5.60;;;3.60;99.90;;;;;;5052734;28;20418;-68
2022/04/01 04:08:06;;;;;;;8.23;6.73;;;;;;;;;;5052494;28;20463;-66
2022/04/01 04:10:34;;;;;;;11.63;6.47;;;3.50;99.90;;;;;;5052421;28;20960;-67
2022/04/01 04:13:07;;;;;;;10.80;6.70;;;3.50;99.90;;;;;;5052477;28;20421;-67
2022/04/01 04:15:57;;;;;;;9.40;6.43;;;3.60;99.90;;;;;;5052490;28;20518;-67
2022/04/01 04:18:43;;;;;;;8.93;6.30;;;3.60;99.90;;;;;;5052301;28;20836;-66
2022/04/01 04:21:24;;;;;;;8.60;6.67;;;3.60;99.90;;;;;;5050877;23;20500;-60
2022/04/01 04:23:55;;;;;;;7.70;4.97;;;3.50;99.90;;;;;;5053542;28;20518;-63
2022/04/01 04:26:30;;;;;;;7.10;5.60;;;3.60;99.90;;;;;;5055361;28;20416;-62
2022/04/01 04:29:11;;;;;;;8.67;6.20;;;3.60;99.90;;;;;;5055581;28;20455;-62
2022/04/01 04:31:42;;;;;;;8.70;5.70;;;3.60;99.90;;;;;;5055501;28;20498;-62
2022/04/01 04:34:11;;;;;;;10.97;6.67;;;3.50;99.90;;;;;;5055684;28;21028;-64
2022/04/01 04:36:40;;;;;;;10.30;5.83;;;3.50;99.90;;;;;;5054697;28;20419;-61
2022/04/01 04:39:16;;;;;;;8.77;6.17;;;3.50;99.90;;;;;;5055612;28;20421;-62
2022/04/01 04:41:43;;;;;;;6.63;5.10;;;3.50;99.90;;;;;;5055212;28;20527;-63
2022/04/01 04:44:10;;;;;;;8.23;5.27;;;3.50;99.90;;;;;;5055278;28;20524;-61
2022/04/01 04:46:37;;;;;;;7.60;5.73;;;3.50;99.90;;;;;;5054970;28;20456;-63
2022/04/01 04:49:03;;;;;;;7.37;5.87;;;3.50;99.90;;;;;;5055264;28;20428;-63
2022/04/01 04:51:29;;;;;;;7.77;6.43;;;3.50;99.90;;;;;;5054892;28;20815;-63
2022/04/01 04:54:03;;;;;;;7.60;5.50;;;3.50;99.90;;;;;;5055113;28;20470;-64
2022/04/01 04:56:30;;;;;;;8.93;5.90;;;3.50;99.90;;;;;;5054727;28;20414;-63
2022/04/01 04:58:56;;;;;;;8.37;5.70;;;3.40;99.90;;;;;;5054983;28;20423;-61
2022/04/01 05:01:39;;;;;;;6.63;5.30;;;3.40;99.90;;;;;;5054833;28;20810;-63
2022/04/01 05:04:43;;;;;;;6.97;5.37;;;3.50;99.90;;;;;;5054869;28;21081;-63
2022/04/01 05:07:29;;;;;;;6.70;5.30;;;3.50;99.90;;;;;;5054518;28;20425;-64
2022/04/01 05:10:21;;;;;;;9.87;6.30;;;3.50;99.90;;;;;;5054689;28;20421;-64
2022/04/01 05:13:09;;;;;;;5.87;4.37;;;3.60;99.90;;;;;;5054708;28;20415;-63
2022/04/01 05:15:39;;;;;;;6.97;5.03;;;3.60;99.90;;;;;;5054701;28;20430;-63
2022/04/01 05:18:23;;;;;;;6.30;4.93;;;3.60;99.90;;;;;;5054538;28;20420;-63
2022/04/01 05:20:55;;;;;;;6.80;5.17;;;3.50;99.90;;;;;;5054258;28;20438;-64
2022/04/01 05:23:43;;;;;;;6.50;4.97;;;3.40;99.90;;;;;;5054536;28;20559;-62
2022/04/01 05:26:14;;;;;;;5.50;4.70;;;3.40;99.90;;;;;;5054361;28;20423;-63
2022/04/01 05:29:01;;;;;;;5.83;4.80;;;3.30;99.90;;;;;;5054209;28;20463;-63
2022/04/01 05:31:37;;;;;;;6.57;5.20;;;3.40;99.90;;;;;;5053748;28;20454;-63
2022/04/01 05:34:18;;;;;;;7.80;5.23;;;3.30;99.90;;;;;;5054504;28;20553;-63
2022/04/01 05:36:44;;;;;;;9.43;5.40;;;3.30;99.90;;;;;;5053959;28;20496;-63
2022/04/01 05:39:12;;;;;;;7.13;4.60;;;3.30;99.90;;;;;;5054269;28;20458;-64
2022/04/01 05:41:40;;;;;;;6.17;4.20;;;3.30;99.90;;;;;;5053916;28;21057;-63
2022/04/01 05:44:09;;;;;;;5.80;5.20;;;3.30;99.90;;;;;;5054285;28;20568;-63
2022/04/01 05:46:37;;;;;;;6.70;4.80;;;3.30;99.90;;;;;;5053765;28;20431;-62
2022/04/01 05:49:05;;;;;;;5.40;4.33;;;3.30;99.90;;;;;;5053417;28;20560;-63
2022/04/01 05:51:32;;;;;;;6.73;4.83;;;3.40;99.90;;;;;;5053842;28;20816;-64
2022/04/01 05:53:58;;;;;;;6.03;4.90;;;3.40;99.90;;;;;;5053898;28;20697;-64
2022/04/01 05:56:26;;;;;;;5.63;4.50;;;3.40;99.90;;;;;;5053676;28;20408;-63
2022/04/01 05:58:52;;;;;;;7.97;5.53;;;3.40;99.90;;;;;;5053996;28;20917;-63
2022/04/01 06:01:36;;;;;;;5.70;4.73;;;3.50;99.90;;;;;;5053942;28;20431;-63
2022/04/01 06:04:20;;;;;;;7.60;5.07;;;3.40;99.90;;;;;;5053980;28;20840;-62
2022/04/01 06:06:48;;;;;;;6.27;4.23;;;3.50;99.90;;;;;;5053626;28;20748;-63
2022/04/01 06:09:33;;;;;;;10.53;4.90;;;3.50;99.90;;;;;;5053929;28;20423;-62
2022/04/01 06:12:05;;;;;;;9.33;4.87;;;3.50;99.90;;;;;;5053653;28;20825;-63
2022/04/01 06:15:01;;;;;;;7.03;5.30;;;3.50;99.90;;;;;;5053724;28;20459;-63
2022/04/01 06:17:51;;;;;;;5.83;4.20;;;3.50;99.90;;;;;;5053533;28;20508;-64
2022/04/01 06:20:20;;;;;;;6.80;4.47;;;3.40;99.90;;;;;;5053708;28;20435;-63
2022/04/01 06:22:58;;;;;;;5.63;4.00;;;3.50;99.90;;;;;;5053591;28;20435;-63
2022/04/01 06:25:30;;;;;;;7.43;6.40;;;3.40;99.90;;;;;;5053586;28;20409;-62
2022/04/01 06:28:16;;;;;;;8.17;5.70;;;3.40;99.90;;;;;;5053353;28;20421;-63
2022/04/01 06:30:44;;;;;;;6.00;4.73;;;3.50;99.90;;;;;;5053561;28;20455;-63
2022/04/01 06:33:36;;;;;;;6.17;4.30;;;3.40;99.90;;;;;;5053468;28;20471;-63
2022/04/01 06:36:06;;;;;;;7.40;4.90;;;3.40;99.90;;;;;;5053980;28;20426;-63
2022/04/01 06:38:49;;;;;;;9.53;4.70;;;3.40;99.90;;;;;;5053351;28;20423;-63
2022/04/01 06:41:19;;;;;;;7.20;4.93;;;3.40;99.90;;;;;;5053420;28;20442;-64
2022/04/01 06:43:46;;;;;;;6.93;4.53;;;3.40;99.90;;;;;;5053440;28;20810;-64
2022/04/01 06:46:12;;;;;;;5.93;4.00;;;3.30;99.90;;;;;;5053243;28;20423;-63
2022/04/01 06:48:38;;;;;;;6.17;4.13;;;3.40;99.90;;;;;;5053120;28;20413;-65
2022/04/01 06:51:04;;;;;;;7.23;4.30;;;3.40;99.90;;;;;;5053402;28;20262;-64
2022/04/01 06:53:30;;;;;;;4.77;4.10;;;3.30;99.90;;;;;;5053366;28;20986;-62
2022/04/01 06:55:55;;;;;;;6.43;4.60;;;3.40;99.90;;;;;;5053354;28;20478;-62
2022/04/01 06:58:26;;;;;;;5.23;3.87;;;3.30;99.90;;;;;;5053067;28;20175;-63
2022/04/01 07:00:53;;;;;;;4.93;4.43;;;3.40;99.90;;;;;;5057053;28;20195;-62
2022/04/01 07:03:18;;;;;;;5.93;3.80;;;3.30;99.90;;;;;;5057185;28;20433;-63
2022/04/01 07:05:44;;;;;;;7.70;4.90;;;3.30;99.90;;;;;;5057119;28;20940;-64
2022/04/01 07:08:11;;;;;;;6.30;3.87;;;3.40;99.90;;;;;;5056994;28;20185;-62
2022/04/01 07:10:39;;;;;;;4.87;3.80;;;3.30;99.90;;;;;;5056956;28;20575;-62
2022/04/01 07:13:04;;;;;;;7.50;3.70;;;3.40;99.90;;;;;;5056735;28;20423;-62
2022/04/01 07:15:30;;;;;;;7.07;4.33;;;3.40;99.90;;;;;;5056977;28;20473;-63
2022/04/01 07:17:56;;;;;;;6.60;4.20;;;3.40;99.90;;;;;;5056631;28;20507;-64
2022/04/01 07:20:22;;;;;;;5.00;3.90;;;3.40;99.90;;;;;;5056867;28;20446;-64
2022/04/01 07:22:49;;;;;;;6.60;4.97;;;3.50;99.90;;;;;;5056700;28;20209;-63
2022/04/01 07:25:15;;;;;;;6.60;4.27;;;3.50;99.90;;;;;;5056775;28;20180;-63
2022/04/01 07:27:40;;;;;;;6.30;4.47;;;3.50;99.90;;;;;;5056407;28;20425;-64
2022/04/01 07:30:10;;;;;;;6.43;4.87;;;3.60;99.90;;;;;;5056599;28;20192;-63
2022/04/01 07:32:36;;;;;;;5.57;3.80;;;3.70;99.90;;;;;;5056571;28;20231;-62
2022/04/01 07:35:08;;;;;;;9.43;4.47;;;3.70;99.90;;;;;;5056541;28;20459;-63
2022/04/01 07:37:34;;;;;;;5.67;4.00;;;3.80;99.90;;;;;;5056390;28;20771;-63
2022/04/01 07:40:00;;;;;;;5.47;3.90;;;3.70;99.90;;;;;;5056449;28;20473;-63
2022/04/01 07:42:28;;;;;;;5.23;3.80;;;3.80;99.90;;;;;;5056368;28;20188;-64
2022/04/01 07:44:54;;;;;;;5.13;3.83;;;3.70;99.90;;;;;;5056662;28;20462;-63
2022/04/01 07:47:21;;;;;;;6.80;4.73;;;3.70;99.90;;;;;;5056229;28;20428;-62
2022/04/01 07:49:48;;;;;;;6.33;4.30;;;3.70;99.90;;;;;;5056446;28;20455;-64
2022/04/01 07:52:15;;;;;;;4.57;3.90;;;3.70;99.90;;;;;;5056257;28;20426;-63
2022/04/01 07:54:43;;;;;;;5.87;4.00;;;3.80;99.90;;;;;;5055976;28;20518;-64
2022/04/01 07:57:10;;;;;;;4.87;3.90;;;3.80;99.90;;;;;;5056055;28;20420;-62
2022/04/01 07:59:36;;;;;;;5.87;3.90;;;3.70;99.90;;;;;;5056112;28;20427;-62
2022/04/01 08:02:05;;;;;;;5.27;3.83;;;3.80;99.90;;;;;;5056177;28;20439;-63
2022/04/01 08:04:31;;;;;;;5.70;4.00;;;3.80;99.90;;;;;;5056035;28;20185;-61
2022/04/01 08:06:58;;;;;;;5.43;3.03;;;3.90;99.90;;;;;;5055950;28;20790;-63
2022/04/01 08:09:24;;;;;;;5.30;4.17;;;3.90;99.90;;;;;;5056075;28;20431;-63
2022/04/01 08:11:51;;;;;;;4.90;3.00;;;4.00;99.90;;;;;;5055204;28;20447;-64
2022/04/01 08:14:17;;;;;;;7.67;4.70;;;4.10;99.90;;;;;;5055770;28;20482;-64
2022/04/01 08:16:44;;;;;;;4.80;3.53;;;4.10;99.90;;;;;;5055657;28;20408;-64
2022/04/01 08:19:10;;;;;;;4.77;4.07;;;4.20;99.90;;;;;;5055799;28;20429;-64
2022/04/01 08:21:36;;;;;;;6.80;3.97;;;4.20;99.90;;;;;;5055598;28;20460;-64
2022/04/01 08:24:02;;;;;;;5.10;3.40;;;4.20;99.90;;;;;;5055568;28;20516;-65
2022/04/01 08:26:28;;;;;;;3.80;2.67;;;4.20;99.90;;;;;;5055417;28;20437;-65
2022/04/01 08:28:54;;;;;;;4.73;3.73;;;4.30;99.90;;;;;;5055710;28;20442;-64
2022/04/01 08:31:21;;;;;;;4.87;3.40;;;4.20;99.90;;;;;;5055504;28;20202;-64
2022/04/01 08:33:48;;;;;;;4.23;3.17;;;4.00;99.90;;;;;;5055446;28;20559;-65
2022/04/01 08:36:14;;;;;;;5.80;3.70;;;4.10;99.90;;;;;;5055461;28;20413;-64
2022/04/01 08:38:41;;;;;;;4.77;3.67;;;4.20;99.90;;;;;;5054992;28;20424;-63
2022/04/01 08:41:08;;;;;;;5.77;3.77;;;4.20;99.90;;;;;;5055312;28;20442;-64
2022/04/01 08:43:37;;;;;;;4.67;3.40;;;4.20;99.90;;;;;;5055275;28;20422;-65
2022/04/01 08:46:07;;;;;;;5.43;3.50;;;4.20;99.90;;;;;;5055284;28;20565;-65
2022/04/01 08:48:34;;;;;;;4.20;3.40;;;4.20;99.90;;;;;;5055105;28;20509;-63
2022/04/01 08:51:00;;;;;;;6.80;3.60;;;4.00;99.90;;;;;;5055019;28;20891;-64
2022/04/01 08:53:26;;;;;;;5.60;4.47;;;4.00;99.90;;;;;;5054989;28;20471;-64
2022/04/01 08:55:56;;;;;;;5.20;3.77;;;4.00;99.90;;;;;;5055105;28;20581;-63
2022/04/01 08:58:23;;;;;;;5.57;3.40;;;4.10;99.90;;;;;;5054941;28;20426;-65
2022/04/01 09:00:52;;;;;;;5.47;4.53;;;4.10;99.90;;;;;;5054923;28;20948;-64
2022/04/01 09:03:21;;;;;;;4.23;3.33;;;4.20;99.90;;;;;;5054940;28;20431;-61
2022/04/01 09:05:55;;;;;;;4.83;4.17;;;4.10;99.90;;;;;;5054939;28;20416;-63
2022/04/01 09:08:25;;;;;;;7.23;4.43;;;4.10;99.90;;;;;;5054806;28;20424;-63
2022/04/01 09:10:52;;;;;;;4.60;4.00;;;4.20;99.90;;;;;;5054631;28;20444;-64
2022/04/01 09:13:19;;;;;;;6.70;4.07;;;4.10;99.90;;;;;;5054724;28;20425;-63
2022/04/01 09:15:45;;;;;;;4.40;3.63;;;4.20;99.90;;;;;;5054619;28;20409;-60
2022/04/01 09:18:11;;;;;;;7.67;4.53;;;4.10;99.90;;;;;;5054514;28;20788;-63
2022/04/01 09:20:50;;;;;;;6.07;4.57;;;4.10;99.90;;;;;;5054447;28;20592;-64
2022/04/01 09:23:23;;;;;;;5.20;3.40;;;4.20;99.90;;;;;;5053617;28;20416;-64
2022/04/01 09:25:51;;;;;;;6.27;4.30;;;4.30;99.90;;;;;;5054694;28;20413;-63
2022/04/01 09:28:29;;;;;;;5.60;3.63;;;4.20;99.90;;;;;;5054784;28;20438;-63
2022/04/01 09:31:02;;;;;;;6.57;3.90;;;4.30;99.90;;;;;;5054261;28;20849;-61
2022/04/01 09:33:48;;;;;;;5.17;4.17;;;4.40;99.90;;;;;;5054294;28;20472;-63
2022/04/01 09:36:23;;;;;;;5.70;3.60;;;4.40;99.90;;;;;;5054347;28;20413;-61
2022/04/01 09:39:17;;;;;;;6.13;4.40;;;4.50;99.90;;;;;;5054138;28;20416;-64
2022/04/01 09:41:55;;;;;;;4.80;3.43;;;4.40;99.90;;;;;;5054215;28;20494;-62
2022/04/01 09:44:24;;;;;;;4.60;3.27;;;4.40;99.90;;;;;;5054177;28;21002;-63
2022/04/01 09:46:56;;;;;;;5.27;3.57;;;4.30;99.90;;;;;;5054033;28;20426;-63
2022/04/01 09:49:29;;;;;;;6.47;4.00;;;4.20;99.90;;;;;;5053930;28;20773;-63
2022/04/01 09:51:55;;;;;;;6.50;3.87;;;4.10;99.90;;;;;;5053974;28;20526;-62
2022/04/01 09:54:23;;;;;;;4.40;3.07;;;4.10;99.90;;;;;;5054036;28;20475;-61
2022/04/01 09:56:54;;;;;;;6.23;4.33;;;4.10;99.90;;;;;;5053885;28;20416;-63
2022/04/01 09:59:23;;;;;;;4.80;3.40;;;4.10;99.90;;;;;;5053974;28;20439;-63
2022/04/01 10:01:49;;;;;;;6.53;3.53;;;4.20;99.90;;;;;;5053796;28;20449;-63
2022/04/01 10:04:15;;;;;;;6.30;3.93;;;4.20;99.90;;;;;;5053884;28;20416;-64
2022/04/01 10:06:42;;;;;;;3.77;3.17;;;4.20;99.90;;;;;;5053923;28;20428;-64
2022/04/01 10:09:10;;;;;;;5.57;3.20;;;4.20;99.90;;;;;;5053821;28;20269;-64
2022/04/01 10:11:42;;;;;;;5.33;3.37;;;4.40;99.90;;;;;;5053757;28;20444;-63
2022/04/01 10:14:15;;;;;;;6.60;4.40;;;4.40;99.90;;;;;;5053742;28;20577;-65
2022/04/01 10:16:43;;;;;;;5.13;3.20;;;4.40;99.90;;;;;;5053620;28;20776;-64
2022/04/01 10:19:12;;;;;;;5.27;3.93;;;4.40;99.90;;;;;;5053802;28;20445;-63
2022/04/01 10:21:41;;;;;;;5.00;3.60;;;4.50;99.90;;;;;;5053518;28;20456;-63
2022/04/01 10:24:25;;;;;;;3.97;3.07;;;4.40;99.90;;;;;;5079506;22;20929;-66
2022/04/01 10:27:23;;;;;;;4.10;3.03;;;4.50;99.90;;;;;;5090433;28;20497;-66
2022/04/01 10:29:50;;;;;;;5.40;3.47;;;4.40;99.90;;;;;;5073647;28;20426;-66
2022/04/01 10:32:26;;;;;;;5.20;3.97;;;4.40;99.90;;;;;;5070378;28;20423;-66
2022/04/01 10:34:58;;;;;;;5.47;3.60;;;4.40;99.90;;;;;;5072472;28;20472;-67
2022/04/01 10:37:25;;;;;;;5.30;3.87;;;4.50;99.90;;;;;;5074284;28;20780;-67
2022/04/01 10:40:04;;;;;;;4.93;3.93;;;4.50;99.90;;;;;;5074254;28;20420;-67
2022/04/01 10:42:32;;;;;;;6.27;4.17;;;4.60;99.90;;;;;;5074397;28;20509;-67
2022/04/01 10:45:02;;;;;;;5.13;3.40;;;4.70;99.90;;;;;;5074207;28;20413;-67
2022/04/01 10:53:45;;;;;;;5.00;3.80;;;4.70;99.90;;;;;;5076077;28;20814;-66
2022/04/01 10:56:23;;;;;;;6.00;4.03;;;4.80;99.90;;;;;;5073963;28;20420;-67
2022/04/01 10:59:10;;;;;;;4.57;3.57;;;4.80;99.90;;;;;;5073974;28;20496;-66
2022/04/01 11:01:52;;;;;;;4.73;3.30;;;4.90;99.90;;;;;;5074022;28;20429;-68
2022/04/01 11:04:17;;;;;;;4.70;3.40;;;5.20;99.90;;;;;;5073872;28;21100;-67
2022/04/01 11:06:50;;;;;;;5.17;3.73;;;5.10;99.90;;;;;;5073966;28;20524;-67
2022/04/01 11:09:39;;;;;;;6.77;4.03;;;5.00;99.90;;;;;;5073904;28;20251;-67
2022/04/01 11:12:18;;;;;;;5.37;3.97;;;5.20;99.90;;;;;;5056950;28;20509;-67
2022/04/01 11:14:59;;;;;;;7.03;3.70;;;5.20;99.90;;;;;;5073645;28;20488;-67
2022/04/01 11:17:34;;;;;;;5.00;3.33;;;5.20;99.90;;;;;;5073677;28;20431;-67
2022/04/01 11:20:13;;;;;;;4.87;3.67;;;5.30;99.90;;;;;;5073568;28;20416;-67
2022/04/01 11:23:00;;;;;;;5.67;4.03;;;5.30;99.90;;;;;;5073498;28;20516;-67
2022/04/01 11:25:31;;;;;;;5.37;3.97;;;5.30;99.90;;;;;;5073405;28;20425;-67
2022/04/01 11:27:57;;;;;;;4.33;3.90;;;5.40;99.90;;;;;;5073346;28;20433;-67
2022/04/01 11:30:28;;;;;;;5.27;3.73;;;5.40;99.90;;;;;;5073253;28;20440;-68
2022/04/01 11:32:59;;;;;;;3.57;2.80;;;5.20;99.90;;;;;;5056707;28;20413;-67
2022/04/01 11:35:39;;;;;;;4.50;3.30;;;5.20;99.90;;;;;;5056549;28;20841;-67
2022/04/01 11:38:06;;;;;;;6.93;3.70;;;5.20;99.90;;;;;;5056585;28;20470;-66
2022/04/01 11:40:39;;;;;;;4.60;3.27;;;5.20;99.90;;;;;;5073078;28;20440;-67
2022/04/01 11:43:11;;;;;;;4.87;3.53;;;5.10;99.90;;;;;;5073208;28;20508;-67
2022/04/01 11:45:48;;;;;;;4.80;3.20;;;5.00;99.90;;;;;;5055369;28;20440;-66
2022/04/01 11:48:21;;;;;;;6.23;4.07;;;4.90;99.90;;;;;;5056523;28;21026;-67
2022/04/01 11:50:55;;;;;;;4.30;3.17;;;5.00;99.90;;;;;;5072924;28;20459;-67
2022/04/01 11:53:25;;;;;;;5.03;3.33;;;4.90;99.90;;;;;;5056267;28;20439;-67
2022/04/01 11:55:53;;;;;;;6.03;3.47;;;4.70;99.90;;;;;;5072858;28;20471;-67
2022/04/01 11:58:19;;;;;;;6.17;3.20;;;4.80;99.90;;;;;;5073125;28;20416;-67
2022/04/01 12:00:45;;;;;;;4.83;3.83;;;4.70;99.90;;;;;;5072623;28;20527;-66
2022/04/01 12:03:11;;;;;;;5.80;3.63;;;4.60;99.90;;;;;;5072790;28;20413;-67
2022/04/01 12:05:39;;;;;;;5.30;3.23;;;4.60;99.90;;;;;;5072698;28;20525;-66
2022/04/01 12:10:55;;;;;;;4.60;3.70;;;4.50;99.90;;;;;;5074089;28;20428;-67
2022/04/01 12:13:23;;;;;;;5.40;3.40;;;4.70;99.90;;;;;;5055942;28;20413;-67
2022/04/01 12:15:52;;;;;;;5.07;3.47;;;4.60;99.90;;;;;;5072644;28;20417;-68
2022/04/01 12:18:20;;;;;;;3.87;3.00;;;4.80;99.90;;;;;;5072455;28;20428;-67
2022/04/01 12:20:48;;;;;;;3.80;2.97;;;4.70;99.90;;;;;;5072390;28;20785;-66
2022/04/01 12:23:17;;;;;;;5.53;3.70;;;4.70;99.90;;;;;;5072402;28;20816;-66
2022/04/01 12:25:44;;;;;;;5.00;3.73;;;4.60;99.90;;;;;;5072345;28;20432;-66
2022/04/01 12:28:12;;;;;;;5.03;3.40;;;4.60;99.90;;;;;;5072231;28;20432;-66
2022/04/01 12:30:55;;;;;;;5.23;4.13;;;4.60;99.90;;;;;;5072248;28;20437;-67
2022/04/01 12:33:28;;;;;;;4.83;3.40;;;4.40;99.90;;;;;;5072258;28;20432;-67
2022/04/01 12:36:03;;;;;;;5.97;4.17;;;4.50;99.90;;;;;;5055514;28;20428;-67
2022/04/01 12:38:33;;;;;;;4.07;3.67;;;4.60;99.90;;;;;;5072147;28;20420;-66
2022/04/01 12:41:05;;;;;;;6.13;3.77;;;4.60;99.90;;;;;;5055371;28;20436;-68
2022/04/01 12:43:44;;;;;;;7.87;4.00;;;4.50;99.90;;;;;;5055444;28;20413;-67
2022/04/01 12:46:20;;;;;;;4.63;3.07;;;4.50;99.90;;;;;;5071786;28;20426;-67
2022/04/01 12:48:49;;;;;;;5.23;3.57;;;4.60;99.90;;;;;;5072205;28;20417;-67
2022/04/01 12:51:19;;;;;;;4.37;3.50;;;4.80;99.90;;;;;;5071728;28;20466;-67
2022/04/01 12:54:12;;;;;;;4.87;3.20;;;4.70;99.90;;;;;;5071822;28;20551;-67
2022/04/01 12:56:50;;;;;;;7.63;3.60;;;4.70;99.90;;;;;;5052947;28;20417;-67
2022/04/01 12:59:17;;;;;;;4.43;3.43;;;4.80;99.90;;;;;;5071855;28;20417;-67
2022/04/01 13:02:00;;;;;;;4.03;2.87;;;4.90;99.90;;;;;;5071478;28;20437;-67
2022/04/01 13:04:26;;;;;;;5.60;3.73;;;4.90;99.90;;;;;;5071726;28;20409;-68
2022/04/01 13:07:16;;;;;;;5.00;3.13;;;4.80;99.90;;;;;;5071478;28;20800;-68
2022/04/01 13:09:48;;;;;;;4.00;3.00;;;5.00;99.90;;;;;;5071577;28;20179;-67
2022/04/01 13:12:19;;;;;;;4.00;3.00;;;5.10;99.90;;;;;;5071276;28;20532;-66
2022/04/01 13:14:45;;;;;;;4.33;2.40;;;5.30;99.90;;;;;;5054726;28;20560;-67
2022/04/01 13:17:15;;;;;;;6.20;3.53;;;5.50;99.90;;;;;;5071124;28;20512;-67
2022/04/01 13:19:45;;;;;;;5.80;3.00;;;5.90;99.90;;;;;;5054683;28;20428;-68
2022/04/01 13:22:12;;;;;;;6.20;3.70;;;6.30;99.90;;;;;;5071077;28;20521;-67
2022/04/01 13:24:46;;;;;;;6.70;3.10;;;6.20;99.90;;;;;;5071172;28;20471;-67